Time;durP1;ratioP1;P1;durP2;ratioP2;P2;SDS_P1;SDS_P2;PMS_P1;PMS_P2;Temp;Humidity;BMP_temperature;BMP_pressure;BME280_temperature;BME280_humidity;BME280_pressure;Samples;Min_cycle;Max_cycle;Signal;HPM_P1;HPM_P2
2023/05/02 00:02:31;;;;;;;20.85;18.65;;;;;;;8.98;66.75;100743.00;20995384;28;20243;-77
2023/05/02 00:12:34;;;;;;;21.37;18.70;;;;;;;8.99;66.25;100738.22;20922549;28;20246;-80
2023/05/02 00:22:36;;;;;;;23.20;20.23;;;;;;;8.34;68.54;100759.22;20999125;28;20195;-78
2023/05/02 00:32:39;;;;;;;27.65;21.77;;;;;;;8.46;67.90;100767.09;20980773;28;20550;-78
2023/05/02 00:42:41;;;;;;;25.90;21.13;;;;;;;8.31;69.24;100773.06;20998024;28;20179;-78
2023/05/02 00:52:43;;;;;;;26.07;21.13;;;;;;;8.57;65.40;100782.59;21000618;28;20198;-79
2023/05/02 01:03:21;;;;;;;27.85;22.70;;;;;;;8.78;65.59;100783.81;21058718;28;20603;-79
2023/05/02 01:13:27;;;;;;;25.80;22.17;;;;;;;8.27;65.79;100794.53;20976516;28;20222;-85
2023/05/02 01:24:09;;;;;;;27.55;21.95;;;;;;;8.70;66.67;100800.59;20833815;28;20242;-80
2023/05/02 01:34:12;;;;;;;29.90;23.47;;;;;;;9.10;65.90;100799.59;20940833;28;20701;-85
2023/05/02 01:44:16;;;;;;;28.40;24.50;;;;;;;8.75;65.74;100812.59;20908661;28;20191;-83
2023/05/02 01:54:20;;;;;;;36.90;25.97;;;;;;;8.20;66.61;100823.09;20908936;28;20215;-79
2023/05/02 02:04:22;;;;;;;38.90;27.87;;;;;;;7.43;70.04;100843.44;20941107;28;20277;-78
2023/05/02 02:14:26;;;;;;;38.53;27.93;;;;;;;7.46;70.01;100860.84;20928349;28;20296;-78
2023/05/02 02:24:29;;;;;;;36.80;27.70;;;;;;;8.03;67.56;100870.69;20971232;28;20249;-78
2023/05/02 02:34:31;;;;;;;35.90;26.73;;;;;;;8.03;67.58;100868.72;20988229;28;20215;-79
2023/05/02 02:44:43;;;;;;;37.10;26.17;;;;;;;8.23;66.79;100877.91;21003134;28;20184;-78
2023/05/02 02:54:59;;;;;;;31.90;22.73;;;;;;;7.18;69.91;100888.00;20959667;28;20225;-78
2023/05/02 03:05:03;;;;;;;28.73;20.87;;;;;;;8.17;67.75;100884.75;20960293;28;20215;-78
2023/05/02 03:15:29;;;;;;;29.80;21.70;;;;;;;7.74;68.27;100890.69;20987241;28;20231;-79
2023/05/02 03:25:31;;;;;;;25.95;17.90;;;;;;;8.13;67.46;100904.25;20933695;28;20188;-81
2023/05/02 03:35:34;;;;;;;26.33;18.03;;;;;;;7.68;68.94;100905.97;20916006;28;20552;-80
2023/05/02 03:45:36;;;;;;;24.23;17.27;;;;;;;8.07;67.24;100917.59;20919249;28;20273;-80
2023/05/02 03:55:39;;;;;;;24.73;16.10;;;;;;;7.82;68.47;100923.69;20889916;28;20216;-79
2023/05/02 04:05:44;;;;;;;20.07;13.27;;;;;;;7.94;67.35;100924.03;20923769;28;20215;-86
2023/05/02 04:15:49;;;;;;;20.00;13.43;;;;;;;7.95;67.08;100934.13;20963338;28;20285;-80
2023/05/02 04:25:55;;;;;;;21.47;13.83;;;;;;;8.11;67.58;100943.09;20995704;28;20195;-80
2023/05/02 04:36:05;;;;;;;19.73;12.23;;;;;;;7.77;68.46;100965.94;20982302;28;20284;-81
2023/05/02 04:46:09;;;;;;;20.13;12.60;;;;;;;7.89;70.05;100974.72;20978588;28;20221;-79
2023/05/02 04:56:13;;;;;;;17.20;12.03;;;;;;;7.65;70.58;100985.25;21001969;28;20272;-80
2023/05/02 05:06:16;;;;;;;20.80;12.10;;;;;;;7.33;72.56;101005.72;20962019;28;20237;-80
2023/05/02 05:16:19;;;;;;;19.73;12.77;;;;;;;8.19;70.45;101011.84;20965260;28;20284;-80
2023/05/02 05:26:24;;;;;;;20.70;13.63;;;;;;;8.01;70.94;101028.47;20995789;28;20195;-80
2023/05/02 05:36:26;;;;;;;22.63;14.00;;;;;;;6.92;76.00;101058.78;20972128;28;20251;-81
2023/05/02 05:46:28;;;;;;;30.23;13.20;;;;;;;6.49;77.24;101067.09;21056369;28;20186;-80
2023/05/02 05:56:31;;;;;;;7.20;6.00;;;;;;;6.73;75.50;101075.56;21072961;28;20210;-80
2023/05/02 06:06:47;;;;;;;8.43;5.00;;;;;;;7.04;71.27;101092.88;21072013;28;20675;-80
2023/05/02 06:16:49;;;;;;;7.67;4.13;;;;;;;7.57;69.33;101098.31;21089908;28;20226;-81
2023/05/02 06:26:51;;;;;;;12.90;5.73;;;;;;;7.34;67.83;101114.94;21070376;28;20187;-80
2023/05/02 06:36:56;;;;;;;6.50;3.40;;;;;;;7.30;67.37;101116.69;21023324;28;20246;-80
2023/05/02 06:46:58;;;;;;;10.87;4.20;;;;;;;7.98;65.25;101138.75;20956552;28;20183;-80
2023/05/02 06:57:01;;;;;;;4.83;2.63;;;;;;;7.04;66.90;101163.91;20998348;28;20220;-79
2023/05/02 07:07:03;;;;;;;6.90;3.10;;;;;;;7.92;64.85;101172.88;20992909;28;20214;-80
2023/05/02 07:17:06;;;;;;;6.03;2.10;;;;;;;7.72;65.15;101190.88;20938328;28;20277;-80
2023/05/02 07:27:09;;;;;;;5.23;2.00;;;;;;;7.68;63.78;101209.47;20895102;28;20199;-79
2023/05/02 07:37:11;;;;;;;6.77;4.60;;;;;;;7.52;65.49;101222.84;20863938;28;20219;-79
2023/05/02 07:47:13;;;;;;;6.50;3.03;;;;;;;7.87;63.83;101229.19;20866846;28;20240;-80
2023/05/02 07:57:15;;;;;;;1.40;1.30;;;;;;;7.13;66.27;101259.53;20835922;28;20255;-80
2023/05/02 08:07:17;;;;;;;1.83;0.90;;;;;;;6.88;67.00;101282.25;20870731;28;20501;-79
2023/05/02 08:17:20;;;;;;;1.43;1.30;;;;;;;7.12;65.60;101299.97;20954182;28;20249;-79
2023/05/02 08:27:22;;;;;;;2.53;1.20;;;;;;;6.94;64.64;101312.81;21014841;28;20217;-78
2023/05/02 08:37:24;;;;;;;3.67;2.10;;;;;;;6.00;66.22;101342.00;21001235;28;20524;-79
2023/05/02 08:47:28;;;;;;;5.10;2.50;;;;;;;6.12;64.89;101350.91;20981867;28;20232;-79
2023/05/02 08:57:31;;;;;;;6.30;2.60;;;;;;;7.36;61.66;101359.84;20979197;28;20291;-79
2023/05/02 09:07:45;;;;;;;5.43;2.50;;;;;;;7.27;61.77;101366.41;20977432;28;20245;-79
2023/05/02 09:17:47;;;;;;;6.53;3.10;;;;;;;7.02;60.34;101381.50;20993358;28;20222;-79
2023/05/02 09:27:54;;;;;;;5.87;2.70;;;;;;;7.45;60.36;101402.19;21009831;28;20240;-80
2023/05/02 09:37:58;;;;;;;7.50;2.83;;;;;;;6.83;63.01;101411.41;20962607;28;20215;-79
2023/05/02 09:48:01;;;;;;;5.33;2.53;;;;;;;7.52;59.75;101424.31;20958822;28;20188;-79
2023/05/02 09:58:04;;;;;;;4.43;2.60;;;;;;;7.12;58.04;101433.91;21009582;28;20214;-79
2023/05/02 10:08:10;;;;;;;4.33;2.37;;;;;;;7.35;58.07;101450.88;20986081;28;20219;-80
2023/05/02 10:18:14;;;;;;;5.80;1.63;;;;;;;7.78;56.11;101463.16;20891237;28;20220;-80
2023/05/02 10:28:17;;;;;;;3.77;2.07;;;;;;;7.45;54.06;101458.38;20888340;28;20577;-80
2023/05/02 10:38:20;;;;;;;6.68;2.35;;;;;;;8.26;52.88;101456.75;20854283;28;20223;-82
2023/05/02 10:48:26;;;;;;;7.17;2.33;;;;;;;7.81;53.96;101453.28;20860992;28;20261;-83
2023/05/02 10:58:30;;;;;;;4.17;2.10;;;;;;;8.03;50.56;101459.25;20886907;28;20224;-80
2023/05/02 11:08:32;;;;;;;8.03;2.33;;;;;;;7.72;52.57;101463.50;20859003;28;20214;-80
2023/05/02 11:18:59;;;;;;;4.25;2.22;;;;;;;8.93;49.23;101454.75;20924771;28;20231;-81
2023/05/02 11:29:02;;;;;;;5.20;1.80;;;;;;;8.26;48.03;101468.00;20942745;28;20203;-81
2023/05/02 11:39:17;;;;;;;6.13;2.23;;;;;;;7.91;46.86;101467.25;21007284;28;20245;-80
2023/05/02 11:49:20;;;;;;;5.83;2.13;;;;;;;8.36;48.56;101468.72;21009914;28;20499;-81
2023/05/02 11:59:22;;;;;;;4.37;1.90;;;;;;;9.16;45.79;101470.75;20988987;28;20485;-80
2023/05/02 12:09:24;;;;;;;7.33;2.43;;;;;;;9.23;45.76;101479.63;20990884;28;20219;-79
2023/05/02 12:19:26;;;;;;;3.97;1.90;;;;;;;8.88;44.64;101486.66;20946329;28;20282;-80
2023/05/02 12:29:42;;;;;;;4.03;2.17;;;;;;;9.45;44.19;101485.47;20974039;28;20195;-79
2023/05/02 12:39:44;;;;;;;3.73;2.30;;;;;;;9.02;44.20;101500.81;20988738;28;20271;-80
2023/05/02 12:49:51;;;;;;;3.77;1.33;;;;;;;7.39;43.77;101516.56;20985529;28;20276;-79
2023/05/02 12:59:53;;;;;;;4.03;1.50;;;;;;;9.08;40.48;101508.03;20988467;28;20215;-79
2023/05/02 13:09:55;;;;;;;3.87;1.20;;;;;;;9.35;39.27;101513.81;20985306;28;20188;-79
2023/05/02 13:19:57;;;;;;;4.32;1.88;;;;;;;9.06;38.83;101532.84;21003074;28;20343;-79
2023/05/02 13:30:03;;;;;;;3.33;1.90;;;;;;;10.13;39.36;101518.72;20990251;28;20221;-80
2023/05/02 13:40:10;;;;;;;6.23;1.90;;;;;;;9.60;36.82;101531.50;20972903;28;20215;-80
2023/05/02 13:50:12;;;;;;;5.73;2.33;;;;;;;9.11;35.57;101530.81;21005443;28;20190;-80
2023/05/02 14:00:15;;;;;;;5.33;2.07;;;;;;;9.42;34.25;101531.22;20946279;28;20501;-80
2023/05/02 14:10:17;;;;;;;5.47;2.55;;;;;;;9.88;34.19;101522.00;20989996;28;20194;-80
2023/05/02 14:20:22;;;;;;;4.03;2.38;;;;;;;9.25;35.01;101525.25;20918737;28;20599;-82
2023/05/02 14:30:24;;;;;;;3.57;2.30;;;;;;;10.12;34.65;101517.03;20915206;28;20580;-76
2023/05/02 14:40:26;;;;;;;7.50;2.90;;;;;;;8.96;36.65;101524.56;20914094;28;20781;-80
2023/05/02 14:50:28;;;;;;;7.13;2.97;;;;;;;10.88;34.14;101515.53;20875828;28;20204;-80
2023/05/02 15:00:33;;;;;;;10.80;3.20;;;;;;;10.13;36.00;101518.72;20909223;28;20265;-80
2023/05/02 15:10:37;;;;;;;7.22;2.72;;;;;;;10.21;35.01;101522.81;20905620;28;20188;-80
2023/05/02 15:20:39;;;;;;;7.78;3.50;;;;;;;10.26;35.29;101520.72;20903849;28;20285;-80
2023/05/02 15:30:41;;;;;;;7.05;3.40;;;;;;;10.70;34.61;101526.97;20939654;28;20211;-79
2023/05/02 15:40:43;;;;;;;8.50;3.83;;;;;;;10.31;34.79;101530.25;20920685;28;20220;-80
2023/05/02 15:50:46;;;;;;;6.28;3.38;;;;;;;10.52;35.62;101537.19;20884887;28;20588;-79
2023/05/02 16:00:48;;;;;;;13.35;3.75;;;;;;;9.94;35.30;101542.50;20890367;28;20524;-79
2023/05/02 16:10:53;;;;;;;8.97;3.13;;;;;;;9.03;38.97;101550.38;20877152;28;20197;-79
2023/05/02 16:20:58;;;;;;;7.27;3.33;;;;;;;9.34;36.10;101554.41;20881770;28;20220;-79
2023/05/02 16:31:09;;;;;;;12.20;3.93;;;;;;;9.67;34.89;101555.38;20882146;28;20834;-79
2023/05/02 16:41:12;;;;;;;6.27;3.50;;;;;;;9.37;35.05;101550.16;20902647;28;20195;-81
2023/05/02 16:51:14;;;;;;;8.83;3.60;;;;;;;10.07;36.26;101559.47;20884520;28;20250;-81
2023/05/02 17:01:16;;;;;;;7.28;3.15;;;;;;;9.76;34.50;101569.59;20884561;28;20212;-80
2023/05/02 17:11:20;;;;;;;5.37;3.13;;;;;;;9.20;34.04;101579.69;20901390;28;20697;-78
2023/05/02 17:21:22;;;;;;;6.88;2.55;;;;;;;9.67;34.91;101566.66;20894612;28;20220;-79
2023/05/02 17:31:25;;;;;;;5.83;2.70;;;;;;;9.06;35.86;101566.66;20885047;28;20321;-79
2023/05/02 17:41:27;;;;;;;8.30;3.33;;;;;;;8.51;36.11;101577.47;20902579;28;20269;-80
2023/05/02 17:51:30;;;;;;;6.63;2.70;;;;;;;8.61;36.05;101582.97;20905185;28;20208;-80
2023/05/02 18:01:32;;;;;;;7.75;3.33;;;;;;;8.51;36.26;101594.34;20904261;28;20224;-81
2023/05/02 18:11:35;;;;;;;10.50;3.08;;;;;;;8.04;37.23;101590.28;20897151;28;20222;-81
2023/05/02 18:21:37;;;;;;;8.10;3.30;;;;;;;8.48;38.03;101604.22;20994488;28;20636;-80
2023/05/02 18:31:40;;;;;;;4.50;2.73;;;;;;;8.82;37.28;101604.13;20966658;28;20270;-80
2023/05/02 18:41:43;;;;;;;8.93;3.15;;;;;;;8.75;39.27;101606.47;20984497;28;20240;-80
2023/05/02 18:51:45;;;;;;;7.88;3.20;;;;;;;8.46;40.18;101608.44;20985831;28;20598;-79
2023/05/02 19:01:47;;;;;;;6.77;3.57;;;;;;;7.92;41.04;101629.19;20961131;28;20546;-80
2023/05/02 19:11:49;;;;;;;7.83;2.80;;;;;;;7.93;39.62;101636.50;21002036;28;20207;-80
2023/05/02 19:21:52;;;;;;;7.80;3.03;;;;;;;7.66;40.10;101655.81;20907044;28;20227;-80
2023/05/02 19:31:54;;;;;;;5.07;2.80;;;;;;;7.40;40.40;101653.09;20851055;28;20307;-80
2023/05/02 19:41:56;;;;;;;4.93;2.47;;;;;;;7.50;42.23;101673.84;20870251;28;20195;-79
2023/05/02 19:51:58;;;;;;;5.17;2.27;;;;;;;7.12;43.48;101693.09;20869137;28;20490;-79
2023/05/02 20:02:01;;;;;;;2.70;2.00;;;;;;;6.93;42.82;101697.69;20908425;28;20216;-80
2023/05/02 20:12:04;;;;;;;6.53;1.77;;;;;;;7.11;42.55;101711.09;20917776;28;20613;-79
2023/05/02 20:22:06;;;;;;;4.20;1.30;;;;;;;7.08;41.82;101706.06;20986899;28;20233;-80
2023/05/02 20:32:08;;;;;;;5.77;1.70;;;;;;;6.66;43.67;101712.88;21001253;28;20343;-80
2023/05/02 20:42:10;;;;;;;5.10;1.80;;;;;;;6.67;44.51;101717.38;20988143;28;20233;-81
2023/05/02 20:52:14;;;;;;;4.87;2.00;;;;;;;6.70;44.80;101721.59;20988085;28;20268;-79
2023/05/02 21:02:16;;;;;;;4.57;1.93;;;;;;;6.45;44.91;101728.00;20993372;28;20207;-79
2023/05/02 21:12:18;;;;;;;3.60;1.90;;;;;;;5.86;45.75;101739.72;21006182;28;20249;-80
2023/05/02 21:22:20;;;;;;;6.10;2.20;;;;;;;5.89;47.50;101739.16;20913387;28;20281;-79
2023/05/02 21:32:24;;;;;;;5.80;2.67;;;;;;;6.12;46.66;101734.16;20890400;28;20292;-80
2023/05/02 21:42:26;;;;;;;7.17;2.37;;;;;;;5.80;48.21;101743.59;20920017;28;20205;-80
2023/05/02 21:52:30;;;;;;;8.13;2.90;;;;;;;5.64;48.05;101741.91;20911828;28;20699;-79
2023/05/02 22:02:32;;;;;;;7.30;2.67;;;;;;;5.86;48.24;101750.09;20888216;28;20208;-79
2023/05/02 22:12:34;;;;;;;6.47;2.97;;;;;;;5.08;50.49;101751.94;20938457;28;20597;-79
2023/05/02 22:22:36;;;;;;;6.83;3.07;;;;;;;5.29;50.62;101745.34;20904821;28;20658;-80
2023/05/02 22:32:40;;;;;;;6.43;2.90;;;;;;;5.02;51.30;101756.66;20933800;28;20215;-79
2023/05/02 22:42:42;;;;;;;5.07;3.10;;;;;;;5.01;52.04;101765.34;20918614;28;20222;-79
2023/05/02 22:52:45;;;;;;;6.73;3.40;;;;;;;4.67;53.05;101776.00;20929501;28;20207;-80
2023/05/02 23:02:47;;;;;;;10.27;3.87;;;;;;;4.29;54.57;101766.72;20928690;28;20215;-80
2023/05/02 23:12:49;;;;;;;6.07;3.63;;;;;;;4.46;52.87;101756.28;20937024;28;20231;-80
2023/05/02 23:22:51;;;;;;;9.67;3.20;;;;;;;4.59;53.41;101764.22;20981083;28;20253;-80
2023/05/02 23:32:53;;;;;;;4.93;3.40;;;;;;;4.40;53.94;101760.13;21006222;28;20207;-80
2023/05/02 23:42:56;;;;;;;4.23;3.07;;;;;;;4.22;54.17;101763.31;21025220;28;20204;-80
2023/05/02 23:52:58;;;;;;;6.77;3.40;;;;;;;4.13;54.89;101760.09;20997536;28;20210;-80
